Rockwell Springs, New York
Current Conditions -  °F | °C
As of 4:54 PM on Friday 24 Oct 2014 (Local Time) from KSYR Reporting Station
Few Clouds Few Clouds  
Wind Chill: 56°   Ceiling: Unl
Heat Index: 56°   Visibility: 10mi
Dew Point: 38°   Wind: 15mph
Humidity: 51%   Direction: 290°WNW
Pressure: 29.9"   Gusts: NA
Location:  42.9377°N, 76.1727°W
Report Text: KSYR 242054Z 29013KT 10SM FEW037 FEW230 13/03 A2990 RMK AO2 SLP122 FEW230 V SCT T01330033 53003
Loading
Personal Weather Stations






























Interactive Weather Map
Tropical Storm Tracking
New forecast layout! Learn more

10-Day Weather Forecast

Advertisements
Track Severe Weather on mobile